sensor_id;sensor_type;location;lat;lon;timestamp;P1;durP1;ratioP1;P2;durP2;ratioP2
50585;SDS011;36542;51.700;8.846;2023-07-22T00:00:17;25.03;;;17.00;;
50585;SDS011;36542;51.700;8.846;2023-07-22T00:02:42;24.87;;;16.77;;
50585;SDS011;36542;51.700;8.846;2023-07-22T00:05:08;28.33;;;18.33;;
50585;SDS011;36542;51.700;8.846;2023-07-22T00:07:35;29.47;;;18.27;;
50585;SDS011;36542;51.700;8.846;2023-07-22T00:10:01;27.07;;;17.47;;
50585;SDS011;36542;51.700;8.846;2023-07-22T00:12:27;27.73;;;17.30;;
50585;SDS011;36542;51.700;8.846;2023-07-22T00:14:52;27.53;;;18.83;;
50585;SDS011;36542;51.700;8.846;2023-07-22T00:17:18;28.37;;;17.67;;
50585;SDS011;36542;51.700;8.846;2023-07-22T00:19:44;25.73;;;17.07;;
50585;SDS011;36542;51.700;8.846;2023-07-22T00:22:09;28.00;;;18.10;;
50585;SDS011;36542;51.700;8.846;2023-07-22T00:24:35;26.67;;;17.63;;
50585;SDS011;36542;51.700;8.846;2023-07-22T00:27:00;27.47;;;17.07;;
50585;SDS011;36542;51.700;8.846;2023-07-22T00:29:26;30.40;;;17.57;;
50585;SDS011;36542;51.700;8.846;2023-07-22T00:31:51;27.47;;;18.77;;
50585;SDS011;36542;51.700;8.846;2023-07-22T00:34:17;27.63;;;18.57;;
50585;SDS011;36542;51.700;8.846;2023-07-22T00:36:42;27.17;;;18.10;;
50585;SDS011;36542;51.700;8.846;2023-07-22T00:39:09;30.07;;;18.13;;
50585;SDS011;36542;51.700;8.846;2023-07-22T00:41:34;31.47;;;16.50;;
50585;SDS011;36542;51.700;8.846;2023-07-22T00:44:00;28.17;;;18.37;;
50585;SDS011;36542;51.700;8.846;2023-07-22T00:46:25;26.67;;;16.83;;
50585;SDS011;36542;51.700;8.846;2023-07-22T00:48:51;27.70;;;17.63;;
50585;SDS011;36542;51.700;8.846;2023-07-22T00:51:17;26.87;;;17.27;;
50585;SDS011;36542;51.700;8.846;2023-07-22T00:53:44;28.43;;;17.27;;
50585;SDS011;36542;51.700;8.846;2023-07-22T00:56:09;26.40;;;16.40;;
50585;SDS011;36542;51.700;8.846;2023-07-22T00:58:35;23.90;;;16.70;;
50585;SDS011;36542;51.700;8.846;2023-07-22T01:01:00;26.27;;;16.97;;
50585;SDS011;36542;51.700;8.846;2023-07-22T01:03:26;22.80;;;16.27;;
50585;SDS011;36542;51.700;8.846;2023-07-22T01:05:51;25.63;;;17.13;;
50585;SDS011;36542;51.700;8.846;2023-07-22T01:08:19;26.00;;;15.67;;
50585;SDS011;36542;51.700;8.846;2023-07-22T01:10:45;24.07;;;15.83;;
50585;SDS011;36542;51.700;8.846;2023-07-22T01:13:11;24.47;;;15.57;;
50585;SDS011;36542;51.700;8.846;2023-07-22T01:15:37;28.53;;;15.83;;
50585;SDS011;36542;51.700;8.846;2023-07-22T01:18:03;23.03;;;15.40;;
50585;SDS011;36542;51.700;8.846;2023-07-22T01:20:29;23.73;;;15.43;;
50585;SDS011;36542;51.700;8.846;2023-07-22T01:22:55;22.97;;;16.90;;
50585;SDS011;36542;51.700;8.846;2023-07-22T01:25:21;23.40;;;16.10;;
50585;SDS011;36542;51.700;8.846;2023-07-22T01:27:47;22.47;;;15.57;;
50585;SDS011;36542;51.700;8.846;2023-07-22T01:30:14;22.77;;;15.33;;
50585;SDS011;36542;51.700;8.846;2023-07-22T01:32:40;26.03;;;15.10;;
50585;SDS011;36542;51.700;8.846;2023-07-22T01:35:06;23.00;;;14.23;;
50585;SDS011;36542;51.700;8.846;2023-07-22T01:37:32;21.33;;;14.37;;
50585;SDS011;36542;51.700;8.846;2023-07-22T01:39:58;24.73;;;15.03;;
50585;SDS011;36542;51.700;8.846;2023-07-22T01:42:24;21.63;;;13.47;;
50585;SDS011;36542;51.700;8.846;2023-07-22T01:44:49;19.63;;;14.40;;
50585;SDS011;36542;51.700;8.846;2023-07-22T01:47:15;21.70;;;14.27;;
50585;SDS011;36542;51.700;8.846;2023-07-22T01:49:41;21.87;;;14.17;;
50585;SDS011;36542;51.700;8.846;2023-07-22T01:52:07;22.30;;;13.70;;
50585;SDS011;36542;51.700;8.846;2023-07-22T01:54:32;21.03;;;13.70;;
50585;SDS011;36542;51.700;8.846;2023-07-22T01:56:58;21.50;;;13.17;;
50585;SDS011;36542;51.700;8.846;2023-07-22T01:59:24;22.30;;;13.33;;
50585;SDS011;36542;51.700;8.846;2023-07-22T02:01:50;21.27;;;13.47;;
50585;SDS011;36542;51.700;8.846;2023-07-22T02:04:16;18.77;;;13.13;;
50585;SDS011;36542;51.700;8.846;2023-07-22T02:06:42;21.63;;;13.03;;
50585;SDS011;36542;51.700;8.846;2023-07-22T02:09:07;19.67;;;12.77;;
50585;SDS011;36542;51.700;8.846;2023-07-22T02:11:34;19.20;;;13.27;;
50585;SDS011;36542;51.700;8.846;2023-07-22T02:14:00;20.80;;;12.67;;
50585;SDS011;36542;51.700;8.846;2023-07-22T02:16:26;20.57;;;13.77;;
50585;SDS011;36542;51.700;8.846;2023-07-22T02:18:51;24.53;;;13.33;;
50585;SDS011;36542;51.700;8.846;2023-07-22T02:21:17;21.93;;;12.40;;
50585;SDS011;36542;51.700;8.846;2023-07-22T02:23:42;22.17;;;12.30;;
50585;SDS011;36542;51.700;8.846;2023-07-22T02:26:08;21.90;;;12.67;;
50585;SDS011;36542;51.700;8.846;2023-07-22T02:28:33;20.70;;;13.40;;
50585;SDS011;36542;51.700;8.846;2023-07-22T02:31:01;19.30;;;12.23;;
50585;SDS011;36542;51.700;8.846;2023-07-22T02:33:29;23.00;;;13.67;;
50585;SDS011;36542;51.700;8.846;2023-07-22T02:35:56;22.73;;;12.80;;
50585;SDS011;36542;51.700;8.846;2023-07-22T02:38:21;20.57;;;13.07;;
50585;SDS011;36542;51.700;8.846;2023-07-22T02:40:47;21.77;;;14.20;;
50585;SDS011;36542;51.700;8.846;2023-07-22T02:43:12;22.80;;;13.87;;
50585;SDS011;36542;51.700;8.846;2023-07-22T02:45:38;19.50;;;13.27;;
50585;SDS011;36542;51.700;8.846;2023-07-22T02:48:03;19.07;;;12.27;;
50585;SDS011;36542;51.700;8.846;2023-07-22T02:50:29;17.50;;;12.13;;
50585;SDS011;36542;51.700;8.846;2023-07-22T02:52:56;17.57;;;11.30;;
50585;SDS011;36542;51.700;8.846;2023-07-22T02:55:21;20.37;;;12.83;;
50585;SDS011;36542;51.700;8.846;2023-07-22T02:57:48;17.53;;;11.07;;
50585;SDS011;36542;51.700;8.846;2023-07-22T03:00:15;17.83;;;11.37;;
50585;SDS011;36542;51.700;8.846;2023-07-22T03:02:48;17.97;;;11.10;;
50585;SDS011;36542;51.700;8.846;2023-07-22T03:05:15;18.67;;;11.83;;
50585;SDS011;36542;51.700;8.846;2023-07-22T03:07:41;18.07;;;11.57;;
50585;SDS011;36542;51.700;8.846;2023-07-22T03:10:07;18.17;;;11.70;;
50585;SDS011;36542;51.700;8.846;2023-07-22T03:12:34;18.57;;;11.80;;
50585;SDS011;36542;51.700;8.846;2023-07-22T03:15:00;15.97;;;9.97;;
50585;SDS011;36542;51.700;8.846;2023-07-22T03:17:26;16.93;;;11.03;;
50585;SDS011;36542;51.700;8.846;2023-07-22T03:19:51;17.47;;;11.00;;
50585;SDS011;36542;51.700;8.846;2023-07-22T03:22:17;19.10;;;12.07;;
50585;SDS011;36542;51.700;8.846;2023-07-22T03:24:44;17.60;;;11.43;;
50585;SDS011;36542;51.700;8.846;2023-07-22T03:27:10;15.20;;;11.37;;
50585;SDS011;36542;51.700;8.846;2023-07-22T03:29:36;15.37;;;10.20;;
50585;SDS011;36542;51.700;8.846;2023-07-22T03:32:03;15.43;;;10.53;;
50585;SDS011;36542;51.700;8.846;2023-07-22T03:34:29;17.17;;;10.93;;
50585;SDS011;36542;51.700;8.846;2023-07-22T03:36:55;17.03;;;11.27;;
50585;SDS011;36542;51.700;8.846;2023-07-22T03:39:21;16.53;;;11.00;;
50585;SDS011;36542;51.700;8.846;2023-07-22T03:41:46;17.07;;;10.10;;
50585;SDS011;36542;51.700;8.846;2023-07-22T03:44:12;15.33;;;10.27;;
50585;SDS011;36542;51.700;8.846;2023-07-22T03:46:39;17.90;;;10.80;;
50585;SDS011;36542;51.700;8.846;2023-07-22T03:49:05;21.97;;;11.37;;
50585;SDS011;36542;51.700;8.846;2023-07-22T03:51:30;20.23;;;10.77;;
50585;SDS011;36542;51.700;8.846;2023-07-22T03:53:56;17.87;;;12.53;;
50585;SDS011;36542;51.700;8.846;2023-07-22T03:56:22;19.47;;;11.07;;
50585;SDS011;36542;51.700;8.846;2023-07-22T03:58:49;17.30;;;11.00;;
50585;SDS011;36542;51.700;8.846;2023-07-22T04:01:16;18.33;;;12.27;;
50585;SDS011;36542;51.700;8.846;2023-07-22T04:03:41;17.37;;;12.00;;
50585;SDS011;36542;51.700;8.846;2023-07-22T04:06:07;17.77;;;10.87;;
50585;SDS011;36542;51.700;8.846;2023-07-22T04:08:32;22.53;;;12.50;;
50585;SDS011;36542;51.700;8.846;2023-07-22T04:10:58;17.50;;;12.27;;
50585;SDS011;36542;51.700;8.846;2023-07-22T04:13:24;18.00;;;11.67;;
50585;SDS011;36542;51.700;8.846;2023-07-22T04:15:50;18.97;;;12.80;;
50585;SDS011;36542;51.700;8.846;2023-07-22T04:18:17;18.27;;;12.27;;
50585;SDS011;36542;51.700;8.846;2023-07-22T04:20:44;21.03;;;13.20;;
50585;SDS011;36542;51.700;8.846;2023-07-22T04:23:10;20.80;;;12.03;;
50585;SDS011;36542;51.700;8.846;2023-07-22T04:25:42;24.73;;;12.50;;
50585;SDS011;36542;51.700;8.846;2023-07-22T04:28:09;20.23;;;13.33;;
50585;SDS011;36542;51.700;8.846;2023-07-22T04:30:35;20.97;;;12.93;;
50585;SDS011;36542;51.700;8.846;2023-07-22T04:33:01;25.27;;;14.10;;
50585;SDS011;36542;51.700;8.846;2023-07-22T04:35:27;21.70;;;12.77;;
50585;SDS011;36542;51.700;8.846;2023-07-22T04:37:56;18.10;;;12.80;;
50585;SDS011;36542;51.700;8.846;2023-07-22T04:40:21;22.33;;;13.23;;
50585;SDS011;36542;51.700;8.846;2023-07-22T04:42:47;19.27;;;12.47;;
50585;SDS011;36542;51.700;8.846;2023-07-22T04:45:12;20.97;;;13.10;;
50585;SDS011;36542;51.700;8.846;2023-07-22T04:47:38;21.27;;;13.53;;
50585;SDS011;36542;51.700;8.846;2023-07-22T04:50:04;17.13;;;11.63;;
50585;SDS011;36542;51.700;8.846;2023-07-22T04:52:36;23.17;;;13.40;;
50585;SDS011;36542;51.700;8.846;2023-07-22T04:55:02;19.77;;;12.73;;
50585;SDS011;36542;51.700;8.846;2023-07-22T04:57:33;16.53;;;11.17;;
50585;SDS011;36542;51.700;8.846;2023-07-22T05:00:07;18.80;;;11.43;;
50585;SDS011;36542;51.700;8.846;2023-07-22T05:02:43;19.37;;;11.87;;
50585;SDS011;36542;51.700;8.846;2023-07-22T05:05:10;13.73;;;10.50;;
50585;SDS011;36542;51.700;8.846;2023-07-22T05:07:36;19.97;;;11.50;;
50585;SDS011;36542;51.700;8.846;2023-07-22T05:10:02;16.97;;;10.57;;
50585;SDS011;36542;51.700;8.846;2023-07-22T05:12:28;14.00;;;10.07;;
50585;SDS011;36542;51.700;8.846;2023-07-22T05:14:53;19.70;;;11.03;;
50585;SDS011;36542;51.700;8.846;2023-07-22T05:17:19;17.57;;;10.83;;
50585;SDS011;36542;51.700;8.846;2023-07-22T05:19:44;16.13;;;10.23;;
50585;SDS011;36542;51.700;8.846;2023-07-22T05:22:10;15.57;;;11.17;;
50585;SDS011;36542;51.700;8.846;2023-07-22T05:24:36;17.87;;;11.57;;
50585;SDS011;36542;51.700;8.846;2023-07-22T05:27:02;18.03;;;12.00;;
50585;SDS011;36542;51.700;8.846;2023-07-22T05:29:28;18.83;;;11.03;;
50585;SDS011;36542;51.700;8.846;2023-07-22T05:31:53;18.40;;;11.90;;
50585;SDS011;36542;51.700;8.846;2023-07-22T05:34:19;21.37;;;12.23;;
50585;SDS011;36542;51.700;8.846;2023-07-22T05:36:44;18.57;;;13.00;;
50585;SDS011;36542;51.700;8.846;2023-07-22T05:39:10;17.80;;;12.00;;
50585;SDS011;36542;51.700;8.846;2023-07-22T05:41:35;19.60;;;12.83;;
50585;SDS011;36542;51.700;8.846;2023-07-22T05:44:01;17.30;;;12.43;;
50585;SDS011;36542;51.700;8.846;2023-07-22T05:46:27;16.90;;;12.97;;
50585;SDS011;36542;51.700;8.846;2023-07-22T05:48:52;20.23;;;14.17;;
50585;SDS011;36542;51.700;8.846;2023-07-22T05:51:18;16.37;;;11.73;;
50585;SDS011;36542;51.700;8.846;2023-07-22T05:53:43;21.03;;;13.20;;
50585;SDS011;36542;51.700;8.846;2023-07-22T05:56:09;21.03;;;13.50;;
50585;SDS011;36542;51.700;8.846;2023-07-22T05:58:35;21.17;;;13.87;;
50585;SDS011;36542;51.700;8.846;2023-07-22T06:01:01;24.50;;;14.57;;
50585;SDS011;36542;51.700;8.846;2023-07-22T06:03:27;21.17;;;13.57;;
50585;SDS011;36542;51.700;8.846;2023-07-22T06:05:53;23.57;;;15.13;;
50585;SDS011;36542;51.700;8.846;2023-07-22T06:08:19;24.53;;;14.73;;
50585;SDS011;36542;51.700;8.846;2023-07-22T06:10:44;22.53;;;14.53;;
50585;SDS011;36542;51.700;8.846;2023-07-22T06:13:10;18.67;;;13.40;;
50585;SDS011;36542;51.700;8.846;2023-07-22T06:15:35;22.20;;;14.70;;
50585;SDS011;36542;51.700;8.846;2023-07-22T06:18:01;20.13;;;14.37;;
50585;SDS011;36542;51.700;8.846;2023-07-22T06:20:27;18.37;;;13.77;;
50585;SDS011;36542;51.700;8.846;2023-07-22T06:22:53;20.80;;;12.90;;
50585;SDS011;36542;51.700;8.846;2023-07-22T06:25:18;18.43;;;12.80;;
50585;SDS011;36542;51.700;8.846;2023-07-22T06:27:44;16.10;;;11.70;;
50585;SDS011;36542;51.700;8.846;2023-07-22T06:30:09;19.30;;;12.83;;
50585;SDS011;36542;51.700;8.846;2023-07-22T06:32:37;16.23;;;12.50;;
50585;SDS011;36542;51.700;8.846;2023-07-22T06:35:03;19.07;;;12.27;;
50585;SDS011;36542;51.700;8.846;2023-07-22T06:37:29;16.23;;;12.40;;
50585;SDS011;36542;51.700;8.846;2023-07-22T06:39:55;15.73;;;12.13;;
50585;SDS011;36542;51.700;8.846;2023-07-22T06:42:20;15.40;;;10.97;;
50585;SDS011;36542;51.700;8.846;2023-07-22T06:44:46;16.50;;;11.37;;
50585;SDS011;36542;51.700;8.846;2023-07-22T06:47:12;15.73;;;11.80;;
50585;SDS011;36542;51.700;8.846;2023-07-22T06:49:37;13.60;;;10.43;;
50585;SDS011;36542;51.700;8.846;2023-07-22T06:52:03;15.47;;;10.83;;
50585;SDS011;36542;51.700;8.846;2023-07-22T06:54:29;12.67;;;11.07;;
50585;SDS011;36542;51.700;8.846;2023-07-22T06:56:55;15.43;;;10.63;;
50585;SDS011;36542;51.700;8.846;2023-07-22T06:59:20;12.68;;;10.95;;
50585;SDS011;36542;51.700;8.846;2023-07-22T07:01:46;15.52;;;9.43;;
50585;SDS011;36542;51.700;8.846;2023-07-22T07:04:11;12.93;;;9.68;;
50585;SDS011;36542;51.700;8.846;2023-07-22T07:06:37;12.80;;;9.45;;
50585;SDS011;36542;51.700;8.846;2023-07-22T07:09:03;12.82;;;9.52;;
50585;SDS011;36542;51.700;8.846;2023-07-22T07:11:30;15.95;;;10.38;;
50585;SDS011;36542;51.700;8.846;2023-07-22T07:13:56;14.70;;;10.50;;
50585;SDS011;36542;51.700;8.846;2023-07-22T07:16:23;15.25;;;10.60;;
50585;SDS011;36542;51.700;8.846;2023-07-22T07:18:52;12.68;;;9.90;;
50585;SDS011;36542;51.700;8.846;2023-07-22T07:21:18;12.98;;;10.35;;
50585;SDS011;36542;51.700;8.846;2023-07-22T07:23:44;15.10;;;10.85;;
50585;SDS011;36542;51.700;8.846;2023-07-22T07:26:10;13.07;;;10.27;;
50585;SDS011;36542;51.700;8.846;2023-07-22T07:28:35;13.50;;;10.77;;
50585;SDS011;36542;51.700;8.846;2023-07-22T07:31:01;15.82;;;10.70;;
50585;SDS011;36542;51.700;8.846;2023-07-22T07:33:26;13.43;;;10.70;;
50585;SDS011;36542;51.700;8.846;2023-07-22T07:35:52;15.60;;;10.93;;
50585;SDS011;36542;51.700;8.846;2023-07-22T07:38:18;14.83;;;11.00;;
50585;SDS011;36542;51.700;8.846;2023-07-22T07:40:43;13.48;;;10.38;;
50585;SDS011;36542;51.700;8.846;2023-07-22T07:43:09;12.25;;;10.20;;
50585;SDS011;36542;51.700;8.846;2023-07-22T07:45:38;15.60;;;10.73;;
50585;SDS011;36542;51.700;8.846;2023-07-22T07:48:07;14.75;;;11.10;;
50585;SDS011;36542;51.700;8.846;2023-07-22T07:50:33;16.47;;;11.07;;
50585;SDS011;36542;51.700;8.846;2023-07-22T07:52:58;14.13;;;10.97;;
50585;SDS011;36542;51.700;8.846;2023-07-22T07:55:24;14.40;;;10.03;;
50585;SDS011;36542;51.700;8.846;2023-07-22T07:57:50;14.03;;;10.07;;
50585;SDS011;36542;51.700;8.846;2023-07-22T08:00:16;13.43;;;11.13;;
50585;SDS011;36542;51.700;8.846;2023-07-22T08:02:42;13.30;;;9.93;;
50585;SDS011;36542;51.700;8.846;2023-07-22T08:05:07;14.27;;;10.47;;
50585;SDS011;36542;51.700;8.846;2023-07-22T08:07:33;15.50;;;10.60;;
50585;SDS011;36542;51.700;8.846;2023-07-22T08:09:59;14.77;;;10.93;;
50585;SDS011;36542;51.700;8.846;2023-07-22T08:12:25;13.83;;;11.07;;
50585;SDS011;36542;51.700;8.846;2023-07-22T08:14:52;13.37;;;10.80;;
50585;SDS011;36542;51.700;8.846;2023-07-22T08:17:18;13.65;;;10.13;;
50585;SDS011;36542;51.700;8.846;2023-07-22T08:19:43;13.05;;;10.25;;
50585;SDS011;36542;51.700;8.846;2023-07-22T08:22:09;14.43;;;9.98;;
50585;SDS011;36542;51.700;8.846;2023-07-22T08:24:34;11.35;;;9.13;;
50585;SDS011;36542;51.700;8.846;2023-07-22T08:27:00;14.32;;;9.95;;
50585;SDS011;36542;51.700;8.846;2023-07-22T08:29:25;12.00;;;9.00;;
50585;SDS011;36542;51.700;8.846;2023-07-22T08:31:51;10.90;;;8.73;;
50585;SDS011;36542;51.700;8.846;2023-07-22T08:34:16;12.93;;;10.27;;
50585;SDS011;36542;51.700;8.846;2023-07-22T08:36:42;11.75;;;9.90;;
50585;SDS011;36542;51.700;8.846;2023-07-22T08:39:08;10.60;;;9.00;;
50585;SDS011;36542;51.700;8.846;2023-07-22T08:41:33;13.23;;;10.25;;
50585;SDS011;36542;51.700;8.846;2023-07-22T08:44:00;12.98;;;9.93;;
50585;SDS011;36542;51.700;8.846;2023-07-22T08:46:29;11.27;;;9.15;;
50585;SDS011;36542;51.700;8.846;2023-07-22T08:48:55;10.90;;;9.57;;
50585;SDS011;36542;51.700;8.846;2023-07-22T08:51:23;10.98;;;9.40;;
50585;SDS011;36542;51.700;8.846;2023-07-22T08:53:53;12.68;;;8.98;;
50585;SDS011;36542;51.700;8.846;2023-07-22T08:56:22;10.23;;;9.10;;
50585;SDS011;36542;51.700;8.846;2023-07-22T08:58:51;10.05;;;8.57;;
50585;SDS011;36542;51.700;8.846;2023-07-22T09:01:17;9.85;;;8.57;;
50585;SDS011;36542;51.700;8.846;2023-07-22T09:03:43;9.73;;;8.38;;
50585;SDS011;36542;51.700;8.846;2023-07-22T09:06:10;11.32;;;8.57;;
50585;SDS011;36542;51.700;8.846;2023-07-22T09:08:36;12.10;;;8.45;;
50585;SDS011;36542;51.700;8.846;2023-07-22T09:11:03;12.60;;;8.48;;
50585;SDS011;36542;51.700;8.846;2023-07-22T09:13:29;11.18;;;8.73;;
50585;SDS011;36542;51.700;8.846;2023-07-22T09:15:57;11.60;;;9.07;;
50585;SDS011;36542;51.700;8.846;2023-07-22T09:18:23;10.23;;;8.90;;
50585;SDS011;36542;51.700;8.846;2023-07-22T09:20:49;10.48;;;8.30;;
50585;SDS011;36542;51.700;8.846;2023-07-22T09:23:15;10.98;;;8.27;;
50585;SDS011;36542;51.700;8.846;2023-07-22T09:25:41;9.70;;;8.70;;
50585;SDS011;36542;51.700;8.846;2023-07-22T09:28:07;10.60;;;8.30;;
50585;SDS011;36542;51.700;8.846;2023-07-22T09:30:34;9.75;;;8.48;;
50585;SDS011;36542;51.700;8.846;2023-07-22T09:33:03;11.55;;;8.75;;
50585;SDS011;36542;51.700;8.846;2023-07-22T09:38:05;10.38;;;8.45;;
50585;SDS011;36542;51.700;8.846;2023-07-22T09:40:32;9.07;;;7.93;;
50585;SDS011;36542;51.700;8.846;2023-07-22T09:43:00;11.32;;;8.85;;
50585;SDS011;36542;51.700;8.846;2023-07-22T09:45:28;11.43;;;8.40;;
50585;SDS011;36542;51.700;8.846;2023-07-22T09:47:55;9.73;;;8.05;;
50585;SDS011;36542;51.700;8.846;2023-07-22T09:50:22;10.05;;;7.88;;
50585;SDS011;36542;51.700;8.846;2023-07-22T09:52:52;10.63;;;7.80;;
50585;SDS011;36542;51.700;8.846;2023-07-22T09:55:22;8.32;;;7.47;;
50585;SDS011;36542;51.700;8.846;2023-07-22T09:57:54;11.38;;;8.32;;
50585;SDS011;36542;51.700;8.846;2023-07-22T10:00:22;9.32;;;8.40;;
50585;SDS011;36542;51.700;8.846;2023-07-22T10:02:51;9.57;;;8.55;;
50585;SDS011;36542;51.700;8.846;2023-07-22T10:05:18;10.48;;;8.10;;
50585;SDS011;36542;51.700;8.846;2023-07-22T10:07:55;10.68;;;8.40;;
50585;SDS011;36542;51.700;8.846;2023-07-22T10:10:40;10.30;;;8.52;;
50585;SDS011;36542;51.700;8.846;2023-07-22T10:13:08;10.60;;;8.15;;
50585;SDS011;36542;51.700;8.846;2023-07-22T10:15:35;9.02;;;7.85;;
50585;SDS011;36542;51.700;8.846;2023-07-22T10:18:01;9.90;;;7.30;;
50585;SDS011;36542;51.700;8.846;2023-07-22T10:20:29;9.82;;;7.60;;
50585;SDS011;36542;51.700;8.846;2023-07-22T10:22:55;8.98;;;7.40;;
50585;SDS011;36542;51.700;8.846;2023-07-22T10:25:21;8.68;;;7.78;;
50585;SDS011;36542;51.700;8.846;2023-07-22T10:27:48;8.95;;;7.13;;
50585;SDS011;36542;51.700;8.846;2023-07-22T10:30:15;9.93;;;7.40;;
50585;SDS011;36542;51.700;8.846;2023-07-22T10:32:42;10.73;;;7.68;;
50585;SDS011;36542;51.700;8.846;2023-07-22T10:36:01;9.70;;;7.28;;
50585;SDS011;36542;51.700;8.846;2023-07-22T10:38:18;9.65;;;8.35;;
50585;SDS011;36542;51.700;8.846;2023-07-22T10:40:48;8.98;;;7.68;;
50585;SDS011;36542;51.700;8.846;2023-07-22T10:43:23;8.18;;;7.38;;
50585;SDS011;36542;51.700;8.846;2023-07-22T10:45:55;8.80;;;6.85;;
50585;SDS011;36542;51.700;8.846;2023-07-22T10:48:23;9.77;;;7.68;;
50585;SDS011;36542;51.700;8.846;2023-07-22T10:51:07;7.90;;;7.05;;
50585;SDS011;36542;51.700;8.846;2023-07-22T10:53:40;12.35;;;7.20;;
50585;SDS011;36542;51.700;8.846;2023-07-22T11:11:58;6.10;;;5.47;;
50585;SDS011;36542;51.700;8.846;2023-07-22T11:14:29;5.50;;;5.00;;
50585;SDS011;36542;51.700;8.846;2023-07-22T11:16:59;8.50;;;5.80;;
50585;SDS011;36542;51.700;8.846;2023-07-22T11:19:28;6.40;;;5.75;;
50585;SDS011;36542;51.700;8.846;2023-07-22T11:21:55;6.90;;;5.90;;
50585;SDS011;36542;51.700;8.846;2023-07-22T11:24:21;7.30;;;5.90;;
50585;SDS011;36542;51.700;8.846;2023-07-22T11:26:49;7.07;;;5.38;;
50585;SDS011;36542;51.700;8.846;2023-07-22T11:29:15;6.90;;;5.85;;
50585;SDS011;36542;51.700;8.846;2023-07-22T11:31:43;8.63;;;6.03;;
50585;SDS011;36542;51.700;8.846;2023-07-22T11:34:14;6.55;;;5.95;;
50585;SDS011;36542;51.700;8.846;2023-07-22T11:36:41;6.63;;;5.82;;
50585;SDS011;36542;51.700;8.846;2023-07-22T11:39:08;7.65;;;5.75;;
50585;SDS011;36542;51.700;8.846;2023-07-22T11:41:36;6.25;;;5.32;;
50585;SDS011;36542;51.700;8.846;2023-07-22T11:44:03;8.27;;;6.30;;
50585;SDS011;36542;51.700;8.846;2023-07-22T11:46:33;8.07;;;5.90;;
50585;SDS011;36542;51.700;8.846;2023-07-22T11:49:00;8.85;;;5.60;;
50585;SDS011;36542;51.700;8.846;2023-07-22T11:51:26;5.88;;;5.30;;
50585;SDS011;36542;51.700;8.846;2023-07-22T11:53:52;7.60;;;5.47;;
50585;SDS011;36542;51.700;8.846;2023-07-22T11:56:20;5.63;;;5.03;;
50585;SDS011;36542;51.700;8.846;2023-07-22T11:58:51;6.03;;;5.43;;
50585;SDS011;36542;51.700;8.846;2023-07-22T12:01:17;7.13;;;5.40;;
50585;SDS011;36542;51.700;8.846;2023-07-22T12:03:44;5.97;;;4.90;;
50585;SDS011;36542;51.700;8.846;2023-07-22T12:06:09;5.85;;;5.25;;
50585;SDS011;36542;51.700;8.846;2023-07-22T12:08:36;6.70;;;4.88;;
50585;SDS011;36542;51.700;8.846;2023-07-22T12:11:07;5.55;;;4.95;;
50585;SDS011;36542;51.700;8.846;2023-07-22T12:13:36;9.38;;;5.35;;
50585;SDS011;36542;51.700;8.846;2023-07-22T12:16:03;7.38;;;5.35;;
50585;SDS011;36542;51.700;8.846;2023-07-22T12:18:42;5.75;;;5.20;;
50585;SDS011;36542;51.700;8.846;2023-07-22T12:21:12;8.32;;;5.65;;
50585;SDS011;36542;51.700;8.846;2023-07-22T12:23:38;5.88;;;5.30;;
50585;SDS011;36542;51.700;8.846;2023-07-22T12:26:05;5.97;;;5.38;;
50585;SDS011;36542;51.700;8.846;2023-07-22T12:28:30;7.07;;;5.60;;
50585;SDS011;36542;51.700;8.846;2023-07-22T12:30:56;8.30;;;5.18;;
50585;SDS011;36542;51.700;8.846;2023-07-22T12:33:22;8.25;;;5.68;;
50585;SDS011;36542;51.700;8.846;2023-07-22T12:35:55;7.45;;;5.63;;
50585;SDS011;36542;51.700;8.846;2023-07-22T12:38:21;7.00;;;5.00;;
50585;SDS011;36542;51.700;8.846;2023-07-22T12:40:47;6.85;;;5.15;;
50585;SDS011;36542;51.700;8.846;2023-07-22T12:43:12;7.30;;;5.65;;
50585;SDS011;36542;51.700;8.846;2023-07-22T12:45:38;5.78;;;5.28;;
50585;SDS011;36542;51.700;8.846;2023-07-22T12:48:03;5.50;;;5.00;;
50585;SDS011;36542;51.700;8.846;2023-07-22T12:50:30;6.90;;;4.53;;
50585;SDS011;36542;51.700;8.846;2023-07-22T12:52:56;7.32;;;5.10;;
50585;SDS011;36542;51.700;8.846;2023-07-22T12:55:22;5.38;;;4.50;;
50585;SDS011;36542;51.700;8.846;2023-07-22T12:57:48;6.18;;;5.13;;
50585;SDS011;36542;51.700;8.846;2023-07-22T13:00:13;5.60;;;5.07;;
50585;SDS011;36542;51.700;8.846;2023-07-22T13:02:39;8.60;;;4.47;;
50585;SDS011;36542;51.700;8.846;2023-07-22T13:05:05;6.57;;;5.25;;
50585;SDS011;36542;51.700;8.846;2023-07-22T13:07:34;7.30;;;5.00;;
50585;SDS011;36542;51.700;8.846;2023-07-22T13:09:59;6.07;;;5.47;;
50585;SDS011;36542;51.700;8.846;2023-07-22T13:12:27;6.65;;;5.57;;
50585;SDS011;36542;51.700;8.846;2023-07-22T13:14:53;7.18;;;4.90;;
50585;SDS011;36542;51.700;8.846;2023-07-22T13:17:19;5.97;;;5.38;;
50585;SDS011;36542;51.700;8.846;2023-07-22T13:19:45;6.78;;;5.10;;
50585;SDS011;36542;51.700;8.846;2023-07-22T13:22:10;5.97;;;5.38;;
50585;SDS011;36542;51.700;8.846;2023-07-22T13:24:36;6.63;;;5.18;;
50585;SDS011;36542;51.700;8.846;2023-07-22T13:27:01;5.43;;;4.90;;
50585;SDS011;36542;51.700;8.846;2023-07-22T13:29:27;5.55;;;4.68;;
50585;SDS011;36542;51.700;8.846;2023-07-22T13:31:53;5.53;;;4.95;;
50585;SDS011;36542;51.700;8.846;2023-07-22T13:34:18;8.90;;;4.70;;
50585;SDS011;36542;51.700;8.846;2023-07-22T13:36:44;8.73;;;4.78;;
50585;SDS011;36542;51.700;8.846;2023-07-22T13:39:10;5.60;;;5.10;;
50585;SDS011;36542;51.700;8.846;2023-07-22T13:41:36;4.53;;;3.97;;
50585;SDS011;36542;51.700;8.846;2023-07-22T13:44:02;6.50;;;4.07;;
50585;SDS011;36542;51.700;8.846;2023-07-22T13:46:27;5.03;;;4.45;;
50585;SDS011;36542;51.700;8.846;2023-07-22T13:48:53;5.05;;;4.55;;
50585;SDS011;36542;51.700;8.846;2023-07-22T13:51:18;5.57;;;4.38;;
50585;SDS011;36542;51.700;8.846;2023-07-22T13:53:44;7.57;;;4.20;;
50585;SDS011;36542;51.700;8.846;2023-07-22T13:56:09;4.97;;;4.20;;
50585;SDS011;36542;51.700;8.846;2023-07-22T13:58:35;5.03;;;4.30;;
50585;SDS011;36542;51.700;8.846;2023-07-22T14:01:00;4.30;;;3.90;;
50585;SDS011;36542;51.700;8.846;2023-07-22T14:03:26;4.75;;;4.35;;
50585;SDS011;36542;51.700;8.846;2023-07-22T14:05:51;5.72;;;4.22;;
50585;SDS011;36542;51.700;8.846;2023-07-22T14:08:18;4.50;;;4.10;;
50585;SDS011;36542;51.700;8.846;2023-07-22T14:10:43;6.13;;;4.43;;
50585;SDS011;36542;51.700;8.846;2023-07-22T14:13:09;13.77;;;10.70;;
50585;SDS011;36542;51.700;8.846;2023-07-22T14:15:34;4.95;;;4.05;;
50585;SDS011;36542;51.700;8.846;2023-07-22T14:18:01;5.53;;;4.03;;
50585;SDS011;36542;51.700;8.846;2023-07-22T14:20:27;4.35;;;3.53;;
50585;SDS011;36542;51.700;8.846;2023-07-22T14:22:55;7.68;;;5.80;;
50585;SDS011;36542;51.700;8.846;2023-07-22T14:25:21;6.53;;;5.90;;
50585;SDS011;36542;51.700;8.846;2023-07-22T14:27:46;5.38;;;4.88;;
50585;SDS011;36542;51.700;8.846;2023-07-22T14:30:12;4.07;;;3.67;;
50585;SDS011;36542;51.700;8.846;2023-07-22T14:32:38;5.80;;;4.20;;
50585;SDS011;36542;51.700;8.846;2023-07-22T14:35:03;4.15;;;3.80;;
50585;SDS011;36542;51.700;8.846;2023-07-22T14:37:29;5.32;;;3.90;;
50585;SDS011;36542;51.700;8.846;2023-07-22T14:39:55;5.88;;;4.18;;
50585;SDS011;36542;51.700;8.846;2023-07-22T14:42:21;4.38;;;3.97;;
50585;SDS011;36542;51.700;8.846;2023-07-22T14:44:46;5.22;;;4.55;;